Time;durP1;ratioP1;P1;durP2;ratioP2;P2;SDS_P1;SDS_P2;PMS_P1;PMS_P2;Temp;Humidity;BMP_temperature;BMP_pressure;BME280_temperature;BME280_humidity;BME280_pressure;Samples;Min_cycle;Max_cycle;Signal;HPM_P1;HPM_P2
2023/06/30 00:00:12;;;;;;;14.53;3.20;;;;;;;-146.25;100.00;57403.91;5048996;28;20682;-87
2023/06/30 00:02:41;;;;;;;3.00;2.90;;;;;;;-146.25;100.00;57403.91;5049950;28;20292;-87
2023/06/30 00:05:08;;;;;;;3.67;2.77;;;;;;;-146.25;100.00;57403.91;5049304;28;20199;-89
2023/06/30 00:07:35;;;;;;;3.30;3.10;;;;;;;-146.25;100.00;57403.91;5052270;28;20211;-88
2023/06/30 00:10:03;;;;;;;3.63;3.43;;;;;;;-146.25;100.00;57403.91;5052481;28;20191;-86
2023/06/30 00:12:31;;;;;;;3.37;3.07;;;;;;;-146.25;100.00;57403.91;5054138;28;20238;-87
2023/06/30 00:14:59;;;;;;;3.17;3.07;;;;;;;-146.25;100.00;57403.91;5052281;28;20202;-88
2023/06/30 00:17:26;;;;;;;6.60;3.67;;;;;;;-146.25;100.00;57403.91;5052098;28;20699;-88
2023/06/30 00:19:53;;;;;;;3.90;3.53;;;;;;;-146.25;100.00;57403.91;5052907;28;20207;-88
2023/06/30 00:22:21;;;;;;;4.70;3.10;;;;;;;-146.25;100.00;57403.91;5052058;28;20203;-87
2023/06/30 00:24:50;;;;;;;3.27;3.00;;;;;;;-146.25;100.00;57403.91;5052781;28;20273;-86
2023/06/30 00:27:17;;;;;;;3.23;3.00;;;;;;;-146.25;100.00;57403.91;5052774;28;20360;-88
2023/06/30 00:29:45;;;;;;;3.33;3.23;;;;;;;-146.25;100.00;57403.91;5052008;28;20223;-88
2023/06/30 00:32:12;;;;;;;3.60;3.20;;;;;;;-146.25;100.00;57403.91;5052134;28;20239;-87
2023/06/30 00:34:42;;;;;;;3.60;2.70;;;;;;;-146.25;100.00;57403.91;5051698;28;20338;-87
2023/06/30 00:37:09;;;;;;;4.23;3.60;;;;;;;-146.25;100.00;57403.91;5055753;28;20199;-87
2023/06/30 00:39:37;;;;;;;3.17;2.97;;;;;;;-146.25;100.00;57403.91;5067153;28;20309;-87
2023/06/30 00:42:06;;;;;;;3.70;3.40;;;;;;;-146.25;100.00;57403.91;5067353;28;20207;-88
2023/06/30 00:44:33;;;;;;;3.57;3.37;;;;;;;-146.25;100.00;57403.91;5076446;28;20200;-86
2023/06/30 00:47:02;;;;;;;3.93;3.13;;;;;;;-146.25;100.00;57403.91;5069989;28;20290;-87
2023/06/30 00:49:30;;;;;;;3.50;3.30;;;;;;;-146.25;100.00;57403.91;5054475;28;20683;-86
2023/06/30 00:51:57;;;;;;;3.77;3.47;;;;;;;-146.25;100.00;57403.91;5055403;28;20269;-87
2023/06/30 00:54:25;;;;;;;3.47;3.27;;;;;;;-146.25;100.00;57403.91;5052622;28;20287;-87
2023/06/30 00:56:52;;;;;;;3.90;3.50;;;;;;;-146.25;100.00;57403.91;5051449;28;20241;-88
2023/06/30 00:59:19;;;;;;;3.83;3.00;;;;;;;-146.25;100.00;57403.91;5051941;28;20698;-89
2023/06/30 01:01:54;;;;;;;5.83;3.80;;;;;;;-146.25;100.00;57403.91;5051253;28;20726;-87
2023/06/30 01:04:29;;;;;;;4.20;3.90;;;;;;;-146.25;100.00;57403.91;5052362;28;20293;-87
2023/06/30 01:07:00;;;;;;;5.20;4.03;;;;;;;-146.25;100.00;57403.91;5050350;28;20274;-86
2023/06/30 01:09:31;;;;;;;3.83;3.53;;;;;;;-146.25;100.00;57403.91;5052123;28;20192;-88
2023/06/30 01:11:59;;;;;;;3.90;3.70;;;;;;;-146.25;100.00;57403.91;5052434;28;20215;-87
2023/06/30 01:14:30;;;;;;;3.63;3.43;;;;;;;-146.25;100.00;57403.91;5051698;28;20211;-87
2023/06/30 01:16:58;;;;;;;3.83;3.57;;;;;;;-146.25;100.00;57403.91;5051225;28;20192;-88
2023/06/30 01:19:32;;;;;;;5.33;4.93;;;;;;;-146.25;100.00;57403.91;5051739;28;20718;-87
2023/06/30 01:22:06;;;;;;;4.20;3.47;;;;;;;-146.25;100.00;57403.91;5051005;28;20195;-87
2023/06/30 01:24:35;;;;;;;5.67;3.87;;;;;;;-146.25;100.00;57403.91;5052200;28;20289;-87
2023/06/30 01:27:03;;;;;;;4.50;4.03;;;;;;;-146.25;100.00;57403.91;5051539;28;20203;-87
2023/06/30 01:29:32;;;;;;;4.30;4.00;;;;;;;-146.25;100.00;57403.91;5051654;28;20195;-88
2023/06/30 01:31:59;;;;;;;4.07;3.77;;;;;;;-146.25;100.00;57403.91;5051923;28;20257;-87
2023/06/30 01:34:28;;;;;;;3.73;3.53;;;;;;;-146.25;100.00;57403.91;5051508;28;20730;-87
2023/06/30 01:36:55;;;;;;;4.50;3.80;;;;;;;-146.25;100.00;57403.91;5051413;28;20544;-87
2023/06/30 01:39:22;;;;;;;3.27;3.07;;;;;;;-146.25;100.00;57403.91;5051914;28;20207;-86
2023/06/30 01:41:49;;;;;;;3.47;3.20;;;;;;;-146.25;100.00;57403.91;5052001;28;20289;-87
2023/06/30 01:44:16;;;;;;;4.97;4.00;;;;;;;-146.25;100.00;57403.91;5051327;28;20220;-87
2023/06/30 01:46:44;;;;;;;3.77;3.47;;;;;;;-146.25;100.00;57403.91;5051095;28;20200;-87
2023/06/30 01:49:14;;;;;;;4.27;3.87;;;;;;;-146.25;100.00;57403.91;5051095;28;20686;-87
2023/06/30 01:51:42;;;;;;;3.17;2.97;;;;;;;-146.25;100.00;57403.91;5050484;28;20205;-87
2023/06/30 01:54:09;;;;;;;5.70;4.10;;;;;;;-146.25;100.00;57403.91;5050836;28;20250;-87
2023/06/30 01:56:36;;;;;;;3.73;3.43;;;;;;;-146.25;100.00;57403.91;5051538;28;20201;-88
2023/06/30 01:59:03;;;;;;;4.37;3.97;;;;;;;-146.25;100.00;57403.91;5050789;28;20214;-88
2023/06/30 02:01:30;;;;;;;4.00;3.70;;;;;;;-146.25;100.00;57403.91;5051131;28;20199;-87
2023/06/30 02:03:57;;;;;;;3.70;3.40;;;;;;;-146.25;100.00;57403.91;5050376;28;20304;-87
2023/06/30 02:06:24;;;;;;;3.60;3.30;;;;;;;-146.25;100.00;57403.91;5049830;28;20570;-88
2023/06/30 02:08:52;;;;;;;3.80;3.50;;;;;;;-146.25;100.00;57403.91;5050809;28;20203;-86
2023/06/30 02:11:21;;;;;;;3.80;3.60;;;;;;;-146.25;100.00;57403.91;5051248;28;20227;-86
2023/06/30 02:13:48;;;;;;;10.17;3.70;;;;;;;-146.25;100.00;57403.91;5051922;28;20292;-87
2023/06/30 02:16:15;;;;;;;4.17;3.87;;;;;;;-146.25;100.00;57403.91;5050954;28;20205;-86
2023/06/30 02:18:42;;;;;;;5.53;4.03;;;;;;;-146.25;100.00;57403.91;5051113;28;20692;-88
2023/06/30 02:21:09;;;;;;;4.97;4.00;;;;;;;-146.25;100.00;57403.91;5049923;28;20199;-87
2023/06/30 02:23:36;;;;;;;3.90;3.60;;;;;;;-146.25;100.00;57403.91;5051579;28;20624;-87
2023/06/30 02:26:05;;;;;;;5.53;3.77;;;;;;;-146.25;100.00;57403.91;5049934;28;20207;-87
2023/06/30 02:28:32;;;;;;;4.20;3.87;;;;;;;-146.25;100.00;57403.91;5050211;28;20341;-86
2023/06/30 02:30:59;;;;;;;3.87;3.57;;;;;;;-146.25;100.00;57403.91;5049279;28;20198;-87
2023/06/30 02:33:28;;;;;;;4.43;3.57;;;;;;;-146.25;100.00;57403.91;5050795;28;20222;-87
2023/06/30 02:35:55;;;;;;;3.97;3.67;;;;;;;-146.25;100.00;57403.91;5049867;28;20214;-88
2023/06/30 02:38:22;;;;;;;3.80;3.40;;;;;;;-146.25;100.00;57403.91;5050118;28;20207;-87
2023/06/30 02:40:50;;;;;;;3.73;3.43;;;;;;;-146.25;100.00;57403.91;5050706;28;20208;-86
2023/06/30 02:43:19;;;;;;;6.13;2.90;;;;;;;-146.25;100.00;57403.91;5050984;28;20249;-87
2023/06/30 02:45:46;;;;;;;4.03;3.83;;;;;;;-146.25;100.00;57403.91;5049529;28;20302;-88
2023/06/30 02:48:13;;;;;;;3.87;3.57;;;;;;;-146.25;100.00;57403.91;5050564;28;20229;-87
2023/06/30 02:50:40;;;;;;;4.67;4.00;;;;;;;-146.25;100.00;57403.91;5050584;28;20239;-87
2023/06/30 02:53:07;;;;;;;4.00;3.70;;;;;;;-146.25;100.00;57403.91;5050169;28;20230;-86
2023/06/30 02:55:35;;;;;;;5.23;3.50;;;;;;;-146.25;100.00;57403.91;5050133;28;20542;-86
2023/06/30 02:58:02;;;;;;;4.97;3.60;;;;;;;-146.25;100.00;57403.91;5049116;28;20652;-87
2023/06/30 03:00:31;;;;;;;3.70;3.07;;;;;;;-146.25;100.00;57403.91;5049755;28;20232;-87
2023/06/30 03:02:58;;;;;;;3.87;3.57;;;;;;;-146.25;100.00;57403.91;5049433;28;20211;-87
2023/06/30 03:05:25;;;;;;;5.13;3.57;;;;;;;-146.25;100.00;57403.91;5047804;28;20208;-86
2023/06/30 03:07:52;;;;;;;4.50;3.80;;;;;;;-146.25;100.00;57403.91;5048889;28;20210;-87
2023/06/30 03:10:19;;;;;;;3.80;3.50;;;;;;;-146.25;100.00;57403.91;5049292;28;20230;-86
2023/06/30 03:12:46;;;;;;;4.60;4.20;;;;;;;-146.25;100.00;57403.91;5049589;28;20272;-86
2023/06/30 03:15:13;;;;;;;8.90;3.83;;;;;;;-146.25;100.00;57403.91;5049204;28;20206;-87
2023/06/30 03:17:41;;;;;;;4.57;4.17;;;;;;;-146.25;100.00;57403.91;5049641;28;20294;-87
2023/06/30 03:20:12;;;;;;;3.57;3.33;;;;;;;-146.25;100.00;57403.91;5048373;28;20261;-87
2023/06/30 03:22:38;;;;;;;3.65;3.22;;;;;;;-146.25;100.00;57403.91;5049902;28;20654;-88
2023/06/30 03:25:08;;;;;;;3.58;3.38;;;;;;;-146.25;100.00;57403.91;5049955;28;20683;-86
2023/06/30 03:27:35;;;;;;;3.35;3.25;;;;;;;-146.25;100.00;57403.91;5048924;28;20288;-86
2023/06/30 03:30:04;;;;;;;2.88;2.78;;;;;;;-146.25;100.00;57403.91;5048765;28;20201;-88
2023/06/30 03:32:31;;;;;;;2.83;2.72;;;;;;;-146.25;100.00;57403.91;5049495;28;20210;-87
2023/06/30 03:35:02;;;;;;;3.30;3.03;;;;;;;-146.25;100.00;57403.91;5048666;28;20293;-87
2023/06/30 03:37:29;;;;;;;5.55;3.00;;;;;;;-146.25;100.00;57403.91;5048994;28;20195;-88
2023/06/30 03:39:57;;;;;;;3.53;3.22;;;;;;;-146.25;100.00;57403.91;5049330;28;20222;-88
2023/06/30 03:42:25;;;;;;;3.47;3.28;;;;;;;-146.25;100.00;57403.91;5051690;28;20279;-88
2023/06/30 03:44:52;;;;;;;8.70;3.33;;;;;;;-146.25;100.00;57403.91;5054096;28;20568;-88
2023/06/30 03:47:19;;;;;;;4.15;3.92;;;;;;;-146.25;100.00;57403.91;5053194;28;20603;-87
2023/06/30 03:49:46;;;;;;;3.78;3.58;;;;;;;-146.25;100.00;57403.91;5053436;28;20273;-88
2023/06/30 03:52:15;;;;;;;4.60;3.17;;;;;;;-146.25;100.00;57403.91;5052782;28;20195;-87
2023/06/30 03:54:42;;;;;;;21.95;14.10;;;;;;;-146.25;100.00;57403.91;5053165;28;20576;-87
2023/06/30 03:57:09;;;;;;;3.95;3.65;;;;;;;-146.25;100.00;57403.91;5052764;28;20200;-88
2023/06/30 03:59:37;;;;;;;7.15;5.45;;;;;;;-146.25;100.00;57403.91;5053865;28;20203;-87
2023/06/30 04:02:04;;;;;;;2.72;2.63;;;;;;;-146.25;100.00;57403.91;5053716;28;20195;-87
2023/06/30 04:04:31;;;;;;;3.58;3.38;;;;;;;-146.25;100.00;57403.91;5059530;28;20238;-87
2023/06/30 04:06:59;;;;;;;4.88;4.47;;;;;;;-146.25;100.00;57403.91;5064963;28;20238;-87
2023/06/30 04:09:28;;;;;;;5.00;4.55;;;;;;;-146.25;100.00;57403.91;5068614;28;20698;-88
2023/06/30 04:11:55;;;;;;;6.65;6.07;;;;;;;-146.25;100.00;57403.91;5071059;28;20215;-87
2023/06/30 04:14:22;;;;;;;4.05;3.85;;;;;;;-146.25;100.00;57403.91;5062473;28;20231;-89
2023/06/30 04:16:50;;;;;;;3.03;2.85;;;;;;;-146.25;100.00;57403.91;5053511;28;20208;-87
2023/06/30 04:19:17;;;;;;;3.65;3.45;;;;;;;-146.25;100.00;57403.91;5052867;28;20679;-86
2023/06/30 04:21:44;;;;;;;5.65;5.18;;;;;;;-146.25;100.00;57403.91;5052192;28;20206;-87
2023/06/30 04:24:11;;;;;;;23.08;11.27;;;;;;;-146.25;100.00;57403.91;5052644;28;20299;-88
2023/06/30 04:26:40;;;;;;;4.32;3.92;;;;;;;-146.25;100.00;57403.91;5052304;28;20195;-87
2023/06/30 04:29:07;;;;;;;4.35;4.03;;;;;;;-146.25;100.00;57403.91;5052281;28;20208;-87
2023/06/30 04:31:35;;;;;;;3.55;3.35;;;;;;;-146.25;100.00;57403.91;5053118;28;20626;-86
2023/06/30 04:34:02;;;;;;;4.53;3.60;;;;;;;-146.25;100.00;57403.91;5052181;28;20723;-87
2023/06/30 04:36:29;;;;;;;3.05;2.85;;;;;;;-146.25;100.00;57403.91;5052654;28;20295;-87
2023/06/30 04:38:57;;;;;;;3.80;3.50;;;;;;;-146.25;100.00;57403.91;5052719;28;20549;-87
2023/06/30 04:41:25;;;;;;;5.07;3.97;;;;;;;-146.25;100.00;57403.91;5052497;28;20204;-87
2023/06/30 04:43:54;;;;;;;3.60;3.40;;;;;;;-146.25;100.00;57403.91;5051340;28;20217;-87
2023/06/30 04:46:24;;;;;;;3.47;3.22;;;;;;;-146.25;100.00;57403.91;5052268;28;20202;-88
2023/06/30 04:49:03;;;;;;;4.28;3.85;;;;;;;-146.25;100.00;57403.91;5053313;28;20229;-87
2023/06/30 04:51:30;;;;;;;6.20;3.47;;;;;;;-146.25;100.00;57403.91;5052838;28;20629;-87
2023/06/30 04:53:59;;;;;;;3.50;3.20;;;;;;;-146.25;100.00;57403.91;5050080;28;20238;-87
2023/06/30 04:56:26;;;;;;;5.43;4.00;;;;;;;-146.25;100.00;57403.91;5051979;28;20380;-89
2023/06/30 04:58:55;;;;;;;5.45;3.58;;;;;;;-146.25;100.00;57403.91;5040138;28;20212;-86
2023/06/30 05:01:23;;;;;;;3.83;3.63;;;;;;;-146.25;100.00;57403.91;5040427;28;20206;-87
2023/06/30 05:03:51;;;;;;;3.47;3.33;;;;;;;-146.25;100.00;57403.91;5040119;28;20207;-87
2023/06/30 05:06:19;;;;;;;4.75;4.53;;;;;;;-146.25;100.00;57403.91;5045288;28;20216;-87
2023/06/30 05:08:46;;;;;;;4.38;4.18;;;;;;;-146.25;100.00;57403.91;5045005;28;20224;-87
2023/06/30 05:11:14;;;;;;;3.80;3.60;;;;;;;-146.25;100.00;57403.91;5034330;28;20226;-88
2023/06/30 05:13:42;;;;;;;4.43;4.13;;;;;;;-146.25;100.00;57403.91;5033571;28;20270;-87
2023/06/30 05:16:12;;;;;;;3.75;3.55;;;;;;;-146.25;100.00;57403.91;5038970;28;20203;-87
2023/06/30 05:18:40;;;;;;;4.10;3.90;;;;;;;-146.25;100.00;57403.91;5050753;28;20211;-86
2023/06/30 05:21:08;;;;;;;4.55;4.07;;;;;;;-146.25;100.00;57403.91;5050614;28;20263;-87
2023/06/30 05:23:37;;;;;;;4.15;3.38;;;;;;;-146.25;100.00;57403.91;5051402;28;20203;-86
2023/06/30 05:26:05;;;;;;;4.28;3.97;;;;;;;-146.25;100.00;57403.91;5044569;28;20671;-86
2023/06/30 05:28:32;;;;;;;3.30;3.20;;;;;;;-146.25;100.00;57403.91;5036396;28;20203;-86
2023/06/30 05:30:59;;;;;;;4.10;3.25;;;;;;;-146.25;100.00;57403.91;5035555;28;20345;-85
2023/06/30 05:33:28;;;;;;;4.13;3.92;;;;;;;-146.25;100.00;57403.91;5033594;28;20203;-87
2023/06/30 05:35:56;;;;;;;7.75;6.97;;;;;;;-146.25;100.00;57403.91;5043421;28;20635;-87
2023/06/30 05:38:23;;;;;;;5.30;4.95;;;;;;;-146.25;100.00;57403.91;5036924;28;20230;-87
2023/06/30 05:40:50;;;;;;;5.05;4.65;;;;;;;-146.25;100.00;57403.91;5033948;28;20211;-86
2023/06/30 05:43:17;;;;;;;5.65;4.72;;;;;;;-146.25;100.00;57403.91;5031950;28;20261;-87
2023/06/30 05:45:45;;;;;;;3.25;2.97;;;;;;;-146.25;100.00;57403.91;5033272;28;20199;-87
2023/06/30 05:48:12;;;;;;;4.22;3.30;;;;;;;-146.25;100.00;57403.91;5035781;28;20195;-87
2023/06/30 05:50:42;;;;;;;4.00;3.80;;;;;;;-146.25;100.00;57403.91;5031907;28;20351;-86
2023/06/30 05:53:09;;;;;;;3.95;3.55;;;;;;;-146.25;100.00;57403.91;5034880;28;20199;-86
2023/06/30 05:55:36;;;;;;;3.95;3.75;;;;;;;-146.25;100.00;57403.91;5031505;28;20266;-86
2023/06/30 05:58:04;;;;;;;4.20;3.90;;;;;;;-146.25;100.00;57403.91;5030426;28;20204;-86
2023/06/30 06:00:31;;;;;;;3.55;3.35;;;;;;;-146.25;100.00;57403.91;5035025;28;20206;-87
2023/06/30 06:03:01;;;;;;;3.47;3.38;;;;;;;-146.25;100.00;57403.91;5032428;28;20287;-87
2023/06/30 06:05:31;;;;;;;4.05;3.85;;;;;;;-146.25;100.00;57403.91;5044462;28;20722;-87
2023/06/30 06:08:00;;;;;;;4.35;3.78;;;;;;;-146.25;100.00;57403.91;5054573;28;20256;-87
2023/06/30 06:10:30;;;;;;;4.35;3.75;;;;;;;-146.25;100.00;57403.91;5038497;28;20496;-87
2023/06/30 06:12:57;;;;;;;4.20;3.97;;;;;;;-146.25;100.00;57403.91;5032046;28;20223;-85
2023/06/30 06:15:24;;;;;;;3.95;3.75;;;;;;;-146.25;100.00;57403.91;5030542;28;20231;-86
2023/06/30 06:17:51;;;;;;;4.80;4.35;;;;;;;-146.25;100.00;57403.91;5031141;28;20215;-86
2023/06/30 06:20:20;;;;;;;4.05;3.85;;;;;;;-146.25;100.00;57403.91;5030629;28;20619;-86
2023/06/30 06:22:47;;;;;;;3.63;3.42;;;;;;;-146.25;100.00;57403.91;5031092;28;20230;-86
2023/06/30 06:25:16;;;;;;;3.80;3.60;;;;;;;-146.25;100.00;57403.91;5032852;28;20200;-85
2023/06/30 06:27:43;;;;;;;4.60;3.63;;;;;;;-146.25;100.00;57403.91;5032895;28;20698;-86
2023/06/30 06:30:11;;;;;;;3.25;2.95;;;;;;;-146.25;100.00;57403.91;5033511;28;20203;-86
2023/06/30 06:32:38;;;;;;;3.30;3.10;;;;;;;-146.25;100.00;57403.91;5033288;28;20211;-87
2023/06/30 06:35:08;;;;;;;3.45;3.25;;;;;;;-146.25;100.00;57403.91;5031669;28;20293;-88
2023/06/30 06:37:35;;;;;;;5.13;4.30;;;;;;;-146.25;100.00;57403.91;5031718;28;20223;-85
2023/06/30 06:40:03;;;;;;;4.47;4.22;;;;;;;-146.25;100.00;57403.91;5044818;28;20203;-84
2023/06/30 06:42:32;;;;;;;4.03;3.78;;;;;;;-146.25;100.00;57403.91;5050782;28;20207;-87
2023/06/30 06:44:59;;;;;;;3.35;3.08;;;;;;;-146.25;100.00;57403.91;5050439;28;20194;-86
2023/06/30 06:48:03;;;;;;;4.00;2.90;;;;;;;-146.25;100.00;57403.91;5050229;28;20199;-86
2023/06/30 06:50:32;;;;;;;3.55;3.20;;;;;;;-146.25;100.00;57403.91;5041652;28;20341;-87
2023/06/30 06:52:59;;;;;;;4.53;3.17;;;;;;;-146.25;100.00;57403.91;5043754;28;20227;-87
2023/06/30 06:55:27;;;;;;;3.85;3.42;;;;;;;-146.25;100.00;57403.91;5034468;28;20234;-87
2023/06/30 06:57:56;;;;;;;3.65;3.45;;;;;;;-146.25;100.00;57403.91;5038256;28;20226;-87
2023/06/30 07:00:23;;;;;;;3.78;3.53;;;;;;;-146.25;100.00;57403.91;5049705;28;20230;-88
2023/06/30 07:05:40;;;;;;;3.63;3.53;;;;;;;-146.25;100.00;57403.91;5046982;28;20225;-87
2023/06/30 07:08:08;;;;;;;4.03;3.83;;;;;;;-146.25;100.00;57403.91;5048079;28;20287;-87
2023/06/30 07:10:41;;;;;;;3.45;3.20;;;;;;;-146.25;100.00;57403.91;5028680;28;20728;-88
2023/06/30 07:13:12;;;;;;;3.67;3.50;;;;;;;-146.25;100.00;57403.91;5028892;28;20235;-88
2023/06/30 07:15:39;;;;;;;3.75;3.55;;;;;;;-146.25;100.00;57403.91;5027888;28;20242;-88
2023/06/30 07:18:09;;;;;;;4.30;3.47;;;;;;;-146.25;100.00;57403.91;5027617;28;20233;-88
2023/06/30 07:20:36;;;;;;;3.70;3.42;;;;;;;-146.25;100.00;57403.91;5028250;28;20243;-88
2023/06/30 07:23:03;;;;;;;3.80;3.47;;;;;;;-146.25;100.00;57403.91;5026819;28;20238;-88
2023/06/30 07:25:34;;;;;;;3.55;3.25;;;;;;;-146.25;100.00;57403.91;5027976;28;20250;-88
2023/06/30 07:28:01;;;;;;;3.67;3.50;;;;;;;-146.25;100.00;57403.91;5027291;28;20242;-87
2023/06/30 07:30:30;;;;;;;6.43;3.60;;;;;;;-146.25;100.00;57403.91;5028037;28;20251;-89
2023/06/30 07:32:57;;;;;;;3.50;3.40;;;;;;;-146.25;100.00;57403.91;5029286;28;20235;-87
2023/06/30 07:35:27;;;;;;;3.67;3.35;;;;;;;-146.25;100.00;57403.91;5029449;28;20918;-88
2023/06/30 07:37:54;;;;;;;3.85;3.55;;;;;;;-146.25;100.00;57403.91;5029050;28;20273;-88
2023/06/30 07:40:24;;;;;;;3.00;2.80;;;;;;;-146.25;100.00;57403.91;5027908;28;20603;-88
2023/06/30 07:42:53;;;;;;;3.15;2.78;;;;;;;-146.25;100.00;57403.91;5029120;28;20219;-89
2023/06/30 07:45:20;;;;;;;3.20;3.05;;;;;;;-146.25;100.00;57403.91;5028907;28;20227;-88
2023/06/30 07:47:53;;;;;;;4.30;3.92;;;;;;;-146.25;100.00;57403.91;5027764;28;20283;-87
2023/06/30 07:50:20;;;;;;;3.05;2.95;;;;;;;-146.25;100.00;57403.91;5027056;28;20239;-86
2023/06/30 07:52:50;;;;;;;2.83;2.72;;;;;;;-146.25;100.00;57403.91;5026591;28;20216;-86
2023/06/30 07:55:20;;;;;;;2.75;2.55;;;;;;;-146.25;100.00;57403.91;5027345;28;20392;-86
2023/06/30 07:57:51;;;;;;;2.78;2.60;;;;;;;-146.25;100.00;57403.91;5040305;28;20726;-85
2023/06/30 08:00:18;;;;;;;6.43;2.28;;;;;;;-146.25;100.00;57403.91;5048146;28;20231;-86
2023/06/30 08:02:48;;;;;;;2.65;2.10;;;;;;;-146.25;100.00;57403.91;5048543;28;20222;-85
2023/06/30 08:05:15;;;;;;;4.60;1.73;;;;;;;-146.25;100.00;57403.91;5068164;28;20223;-85
2023/06/30 08:07:46;;;;;;;1.40;1.40;;;;;;;-146.25;100.00;57403.91;5058157;28;20649;-87
2023/06/30 08:10:13;;;;;;;1.50;1.40;;;;;;;-146.25;100.00;57403.91;5027283;28;20224;-85
2023/06/30 08:12:42;;;;;;;2.00;1.90;;;;;;;-146.25;100.00;57403.91;5025708;28;20767;-87
2023/06/30 08:15:10;;;;;;;2.53;2.38;;;;;;;-146.25;100.00;57403.91;5026309;28;20342;-87
2023/06/30 08:17:37;;;;;;;2.28;2.17;;;;;;;-146.25;100.00;57403.91;5044904;28;20301;-86
2023/06/30 08:20:10;;;;;;;2.63;2.42;;;;;;;-146.25;100.00;57403.91;5027607;28;20246;-85
2023/06/30 08:22:38;;;;;;;2.67;2.58;;;;;;;-146.25;100.00;57403.91;5033321;28;20333;-86
2023/06/30 08:25:10;;;;;;;2.63;2.13;;;;;;;-146.25;100.00;57403.91;5037431;28;20223;-87
2023/06/30 08:27:38;;;;;;;1.98;1.98;;;;;;;-146.25;100.00;57403.91;5028010;28;20669;-87
2023/06/30 08:30:07;;;;;;;2.60;2.50;;;;;;;-146.25;100.00;57403.91;5033007;28;20227;-88
2023/06/30 08:32:34;;;;;;;2.53;2.35;;;;;;;-146.25;100.00;57403.91;5012785;28;20655;-85
2023/06/30 08:35:01;;;;;;;3.80;2.50;;;;;;;-146.25;100.00;57403.91;5030989;28;20301;-84
2023/06/30 08:37:29;;;;;;;3.33;2.25;;;;;;;-146.25;100.00;57403.91;5030749;28;20605;-88
2023/06/30 08:39:56;;;;;;;2.60;2.50;;;;;;;-146.25;100.00;57403.91;5030736;28;20223;-88
2023/06/30 08:42:26;;;;;;;2.97;2.83;;;;;;;-146.25;100.00;57403.91;5029922;28;20680;-86
2023/06/30 08:44:55;;;;;;;5.32;3.33;;;;;;;-146.25;100.00;57403.91;5030763;28;20655;-86
2023/06/30 08:47:27;;;;;;;2.85;2.75;;;;;;;-146.25;100.00;57403.91;5031720;28;20349;-87
2023/06/30 08:49:55;;;;;;;2.95;2.75;;;;;;;-146.25;100.00;57403.91;5029982;28;20746;-87
2023/06/30 08:52:23;;;;;;;3.15;2.75;;;;;;;-146.25;100.00;57403.91;5030946;28;20602;-87
2023/06/30 08:54:52;;;;;;;2.53;2.42;;;;;;;-146.25;100.00;57403.91;5030445;28;20239;-86
2023/06/30 08:57:22;;;;;;;2.60;2.50;;;;;;;-146.25;100.00;57403.91;5030826;28;20227;-87
2023/06/30 08:59:50;;;;;;;2.75;2.65;;;;;;;-146.25;100.00;57403.91;5031157;28;20220;-87
2023/06/30 09:02:17;;;;;;;3.17;2.85;;;;;;;-146.25;100.00;57403.91;5030573;28;20223;-86
2023/06/30 09:04:45;;;;;;;2.83;2.65;;;;;;;-146.25;100.00;57403.91;5031450;28;20227;-87
2023/06/30 09:07:23;;;;;;;2.88;2.78;;;;;;;-146.25;100.00;57403.91;5031178;28;20231;-86
2023/06/30 09:09:55;;;;;;;3.50;2.92;;;;;;;-146.25;100.00;57403.91;5030952;28;20227;-89
2023/06/30 09:12:24;;;;;;;3.22;2.92;;;;;;;-146.25;100.00;57403.91;5031889;28;20392;-87
2023/06/30 09:14:57;;;;;;;5.43;3.00;;;;;;;-146.25;100.00;57403.91;5030860;28;20231;-88
2023/06/30 09:17:26;;;;;;;3.25;3.15;;;;;;;-146.25;100.00;57403.91;5032156;28;20224;-89
2023/06/30 09:19:53;;;;;;;3.03;2.80;;;;;;;-146.25;100.00;57403.91;5030332;28;20232;-88
2023/06/30 09:22:21;;;;;;;2.67;2.47;;;;;;;-146.25;100.00;57403.91;5031455;28;20220;-88
2023/06/30 09:24:49;;;;;;;3.17;3.00;;;;;;;-146.25;100.00;57403.91;5033128;28;20712;-89
2023/06/30 09:27:18;;;;;;;3.25;3.00;;;;;;;-146.25;100.00;57403.91;5032746;28;20223;-87
2023/06/30 09:29:55;;;;;;;3.65;3.47;;;;;;;-146.25;100.00;57403.91;5032315;28;20224;-89
2023/06/30 09:32:29;;;;;;;3.08;2.90;;;;;;;-146.25;100.00;57403.91;5030584;28;20255;-88
2023/06/30 09:34:56;;;;;;;3.42;3.20;;;;;;;-146.25;100.00;57403.91;5030488;28;20236;-88
2023/06/30 09:37:24;;;;;;;3.22;3.03;;;;;;;-146.25;100.00;57403.91;5034173;28;20216;-87
2023/06/30 09:39:52;;;;;;;3.33;3.13;;;;;;;-146.25;100.00;57403.91;5029974;28;20221;-88
2023/06/30 09:42:22;;;;;;;2.60;2.45;;;;;;;-146.25;100.00;57403.91;5030265;28;20297;-87
2023/06/30 09:44:56;;;;;;;3.10;3.00;;;;;;;-146.25;100.00;57403.91;5029452;28;20616;-88
2023/06/30 09:47:27;;;;;;;2.80;2.70;;;;;;;-146.25;100.00;57403.91;5030133;28;20262;-86
2023/06/30 09:49:55;;;;;;;7.50;3.72;;;;;;;-146.25;100.00;57403.91;5030115;28;20309;-87
2023/06/30 09:52:27;;;;;;;3.13;2.92;;;;;;;-146.25;100.00;57403.91;5030423;28;20295;-89
2023/06/30 09:54:55;;;;;;;4.13;3.15;;;;;;;-146.25;100.00;57403.91;5030426;28;20297;-86
2023/06/30 09:57:27;;;;;;;3.25;3.10;;;;;;;-146.25;100.00;57403.91;5029506;28;20722;-89
2023/06/30 10:00:02;;;;;;;3.88;3.58;;;;;;;-146.25;100.00;57403.91;5029794;28;20767;-89
2023/06/30 10:02:31;;;;;;;3.38;3.22;;;;;;;-146.25;100.00;57403.91;5029559;28;20220;-89
2023/06/30 10:04:58;;;;;;;3.22;3.08;;;;;;;-146.25;100.00;57403.91;5030013;28;20239;-88
2023/06/30 10:07:25;;;;;;;3.75;3.55;;;;;;;-146.25;100.00;57403.91;5028919;28;20232;-87
2023/06/30 10:09:55;;;;;;;3.00;2.80;;;;;;;-146.25;100.00;57403.91;5030959;28;20224;-89
2023/06/30 10:12:25;;;;;;;2.90;2.80;;;;;;;-146.25;100.00;57403.91;5034215;28;20224;-88
2023/06/30 10:14:54;;;;;;;3.72;3.40;;;;;;;-146.25;100.00;57403.91;5035576;28;20247;-88
2023/06/30 10:17:21;;;;;;;3.42;3.22;;;;;;;-146.25;100.00;57403.91;5051854;28;20327;-88
2023/06/30 10:19:49;;;;;;;2.92;2.83;;;;;;;-146.25;100.00;57403.91;5051844;28;20216;-87
2023/06/30 10:22:16;;;;;;;2.88;2.78;;;;;;;-146.25;100.00;57403.91;5046463;28;20377;-87
2023/06/30 10:24:46;;;;;;;3.28;3.05;;;;;;;-146.25;100.00;57403.91;5036911;28;20224;-88
2023/06/30 10:27:18;;;;;;;3.47;3.17;;;;;;;-146.25;100.00;57403.91;5034512;28;20243;-87
2023/06/30 10:29:46;;;;;;;3.50;3.30;;;;;;;-146.25;100.00;57403.91;5033672;28;20224;-88
2023/06/30 10:32:14;;;;;;;3.75;3.45;;;;;;;-146.25;100.00;57403.91;5028411;28;20335;-86
2023/06/30 10:34:43;;;;;;;11.35;3.92;;;;;;;-146.25;100.00;57403.91;5029365;28;20223;-88
2023/06/30 10:37:10;;;;;;;2.90;2.70;;;;;;;-146.25;100.00;57403.91;5028965;28;20321;-88
2023/06/30 10:39:41;;;;;;;3.92;3.63;;;;;;;-146.25;100.00;57403.91;5029831;28;20231;-88
2023/06/30 10:42:08;;;;;;;5.45;2.85;;;;;;;-146.25;100.00;57403.91;5028950;28;20568;-88
2023/06/30 10:44:38;;;;;;;3.33;3.13;;;;;;;-146.25;100.00;57403.91;5029084;28;20221;-87
2023/06/30 10:47:07;;;;;;;3.38;3.17;;;;;;;-146.25;100.00;57403.91;5027374;28;20256;-88
2023/06/30 10:49:36;;;;;;;3.50;3.30;;;;;;;-146.25;100.00;57403.91;5027917;28;20618;-89
2023/06/30 10:52:06;;;;;;;3.70;3.50;;;;;;;-146.25;100.00;57403.91;5027784;28;20750;-88
2023/06/30 10:54:40;;;;;;;3.83;3.63;;;;;;;-146.25;100.00;57403.91;5028722;28;20224;-87
2023/06/30 10:57:10;;;;;;;3.28;3.17;;;;;;;-146.25;100.00;57403.91;5029128;28;20238;-89
2023/06/30 10:59:39;;;;;;;3.88;3.63;;;;;;;-146.25;100.00;57403.91;5029596;28;20222;-88
2023/06/30 11:02:22;;;;;;;3.10;2.90;;;;;;;-146.25;100.00;57403.91;5046038;28;20235;-88
2023/06/30 11:04:50;;;;;;;4.97;2.97;;;;;;;-146.25;100.00;57403.91;5048691;28;20215;-89
2023/06/30 11:07:18;;;;;;;3.25;3.05;;;;;;;-146.25;100.00;57403.91;5047671;28;20948;-88
2023/06/30 11:09:59;;;;;;;8.10;3.17;;;;;;;-146.25;100.00;57403.91;5048579;28;20223;-87
2023/06/30 11:12:28;;;;;;;4.60;3.25;;;;;;;-146.25;100.00;57403.91;5047008;28;20237;-89
2023/06/30 11:14:56;;;;;;;2.97;2.88;;;;;;;-146.25;100.00;57403.91;5049596;28;20231;-88
2023/06/30 11:17:26;;;;;;;3.45;3.33;;;;;;;-146.25;100.00;57403.91;5047994;28;20286;-87